sensor_id;sensor_type;location;lat;lon;timestamp;P1;durP1;ratioP1;P2;durP2;ratioP2
6862;SDS011;3470;48.738;9.616;2023-01-20T12:52:02;15.47;;;12.13;;
6862;SDS011;3470;48.738;9.616;2023-01-20T12:54:30;12.43;;;10.50;;
6862;SDS011;3470;48.738;9.616;2023-01-20T13:08:30;15.50;;;10.90;;
6862;SDS011;3470;48.738;9.616;2023-01-20T13:14:06;12.20;;;9.70;;
6862;SDS011;3470;48.738;9.616;2023-01-20T13:16:42;11.53;;;9.33;;
6862;SDS011;3470;48.738;9.616;2023-01-20T13:19:22;11.73;;;9.30;;
6862;SDS011;3470;48.738;9.616;2023-01-20T14:04:35;8.20;;;7.40;;
6862;SDS011;3470;48.738;9.616;2023-01-20T14:07:14;9.80;;;8.23;;
6862;SDS011;3470;48.738;9.616;2023-01-20T14:09:55;10.07;;;8.30;;
6862;SDS011;3470;48.738;9.616;2023-01-20T14:12:22;9.73;;;7.90;;
6862;SDS011;3470;48.738;9.616;2023-01-20T14:14:48;9.67;;;7.70;;
6862;SDS011;3470;48.738;9.616;2023-01-20T14:17:16;10.77;;;7.90;;
6862;SDS011;3470;48.738;9.616;2023-01-20T17:07:38;4.33;;;3.70;;
6862;SDS011;3470;48.738;9.616;2023-01-20T17:10:04;8.47;;;4.63;;
6862;SDS011;3470;48.738;9.616;2023-01-20T17:12:30;8.30;;;4.67;;
6862;SDS011;3470;48.738;9.616;2023-01-20T17:14:56;7.37;;;5.20;;
6862;SDS011;3470;48.738;9.616;2023-01-20T17:17:21;10.30;;;6.10;;
6862;SDS011;3470;48.738;9.616;2023-01-20T17:19:47;10.40;;;6.53;;
6862;SDS011;3470;48.738;9.616;2023-01-20T17:22:12;9.60;;;6.33;;
6862;SDS011;3470;48.738;9.616;2023-01-20T17:24:39;10.33;;;7.07;;
6862;SDS011;3470;48.738;9.616;2023-01-20T17:58:16;10.97;;;7.73;;
6862;SDS011;3470;48.738;9.616;2023-01-20T18:00:41;13.20;;;7.50;;
6862;SDS011;3470;48.738;9.616;2023-01-20T18:03:07;11.47;;;7.53;;
6862;SDS011;3470;48.738;9.616;2023-01-20T18:05:33;11.80;;;7.80;;
6862;SDS011;3470;48.738;9.616;2023-01-20T18:07:59;14.37;;;9.00;;
6862;SDS011;3470;48.738;9.616;2023-01-20T18:10:25;21.30;;;11.50;;
6862;SDS011;3470;48.738;9.616;2023-01-20T18:12:51;16.10;;;11.80;;
6862;SDS011;3470;48.738;9.616;2023-01-20T18:15:17;17.63;;;11.47;;
6862;SDS011;3470;48.738;9.616;2023-01-20T18:17:42;15.60;;;10.93;;
6862;SDS011;3470;48.738;9.616;2023-01-20T18:20:08;16.43;;;10.70;;
6862;SDS011;3470;48.738;9.616;2023-01-20T18:22:35;16.70;;;11.37;;
6862;SDS011;3470;48.738;9.616;2023-01-20T18:25:00;17.50;;;13.03;;
6862;SDS011;3470;48.738;9.616;2023-01-20T18:27:26;21.50;;;13.53;;
6862;SDS011;3470;48.738;9.616;2023-01-20T18:29:52;21.07;;;13.90;;
6862;SDS011;3470;48.738;9.616;2023-01-20T18:32:17;21.90;;;14.13;;
6862;SDS011;3470;48.738;9.616;2023-01-20T18:34:43;19.17;;;13.13;;
6862;SDS011;3470;48.738;9.616;2023-01-20T18:37:08;40.20;;;21.30;;
6862;SDS011;3470;48.738;9.616;2023-01-20T18:39:34;60.67;;;31.20;;
6862;SDS011;3470;48.738;9.616;2023-01-20T18:42:00;28.00;;;17.03;;
6862;SDS011;3470;48.738;9.616;2023-01-20T18:44:26;24.17;;;16.47;;
6862;SDS011;3470;48.738;9.616;2023-01-20T18:46:51;25.13;;;14.87;;
6862;SDS011;3470;48.738;9.616;2023-01-20T18:49:17;22.27;;;14.43;;
6862;SDS011;3470;48.738;9.616;2023-01-20T18:51:43;18.53;;;12.33;;
6862;SDS011;3470;48.738;9.616;2023-01-20T18:54:10;23.73;;;12.63;;
6862;SDS011;3470;48.738;9.616;2023-01-20T18:56:37;16.07;;;12.07;;
6862;SDS011;3470;48.738;9.616;2023-01-20T18:59:04;21.27;;;13.50;;
6862;SDS011;3470;48.738;9.616;2023-01-20T19:01:31;24.73;;;16.20;;
6862;SDS011;3470;48.738;9.616;2023-01-20T19:04:00;21.80;;;12.77;;
6862;SDS011;3470;48.738;9.616;2023-01-20T19:06:27;20.50;;;12.23;;
6862;SDS011;3470;48.738;9.616;2023-01-20T19:08:55;16.80;;;11.77;;
6862;SDS011;3470;48.738;9.616;2023-01-20T19:11:26;17.50;;;12.20;;
6862;SDS011;3470;48.738;9.616;2023-01-20T19:13:56;19.40;;;12.43;;
6862;SDS011;3470;48.738;9.616;2023-01-20T19:16:23;19.47;;;13.93;;
6862;SDS011;3470;48.738;9.616;2023-01-20T19:18:51;21.03;;;13.77;;
6862;SDS011;3470;48.738;9.616;2023-01-20T19:21:18;21.00;;;15.33;;
6862;SDS011;3470;48.738;9.616;2023-01-20T19:23:48;24.80;;;16.13;;
6862;SDS011;3470;48.738;9.616;2023-01-20T19:26:16;27.13;;;17.47;;
6862;SDS011;3470;48.738;9.616;2023-01-20T19:28:43;28.93;;;18.07;;
6862;SDS011;3470;48.738;9.616;2023-01-20T19:31:11;30.10;;;17.90;;
6862;SDS011;3470;48.738;9.616;2023-01-20T19:33:42;23.40;;;16.67;;
6862;SDS011;3470;48.738;9.616;2023-01-20T19:36:09;26.40;;;17.40;;
6862;SDS011;3470;48.738;9.616;2023-01-20T19:38:36;23.33;;;16.67;;
6862;SDS011;3470;48.738;9.616;2023-01-20T19:41:02;26.93;;;16.43;;
6862;SDS011;3470;48.738;9.616;2023-01-20T19:43:32;26.70;;;17.20;;
6862;SDS011;3470;48.738;9.616;2023-01-20T19:45:59;24.30;;;15.77;;
6862;SDS011;3470;48.738;9.616;2023-01-20T19:48:26;23.07;;;15.50;;
6862;SDS011;3470;48.738;9.616;2023-01-20T19:50:55;25.63;;;16.00;;
6862;SDS011;3470;48.738;9.616;2023-01-20T19:53:25;25.03;;;15.10;;
6862;SDS011;3470;48.738;9.616;2023-01-20T19:55:51;24.70;;;14.97;;
6862;SDS011;3470;48.738;9.616;2023-01-20T19:58:17;22.10;;;14.23;;
6862;SDS011;3470;48.738;9.616;2023-01-20T20:00:42;22.53;;;15.03;;
6862;SDS011;3470;48.738;9.616;2023-01-20T20:03:08;23.83;;;15.80;;
6862;SDS011;3470;48.738;9.616;2023-01-20T20:05:36;21.90;;;14.57;;
6862;SDS011;3470;48.738;9.616;2023-01-20T20:08:02;20.33;;;13.87;;
6862;SDS011;3470;48.738;9.616;2023-01-20T20:10:28;19.97;;;14.50;;
6862;SDS011;3470;48.738;9.616;2023-01-20T20:12:54;23.87;;;14.90;;
6862;SDS011;3470;48.738;9.616;2023-01-20T20:15:21;20.60;;;14.87;;
6862;SDS011;3470;48.738;9.616;2023-01-20T20:17:47;21.47;;;14.57;;
6862;SDS011;3470;48.738;9.616;2023-01-20T20:20:13;22.73;;;15.40;;
6862;SDS011;3470;48.738;9.616;2023-01-20T20:22:38;27.50;;;15.10;;
6862;SDS011;3470;48.738;9.616;2023-01-20T20:25:04;27.27;;;15.10;;
6862;SDS011;3470;48.738;9.616;2023-01-20T20:27:31;22.97;;;15.57;;
6862;SDS011;3470;48.738;9.616;2023-01-20T20:29:57;24.07;;;15.27;;
6862;SDS011;3470;48.738;9.616;2023-01-20T20:32:25;21.70;;;14.13;;
6862;SDS011;3470;48.738;9.616;2023-01-20T20:34:50;28.20;;;16.07;;
6862;SDS011;3470;48.738;9.616;2023-01-20T20:37:16;25.30;;;16.00;;
6862;SDS011;3470;48.738;9.616;2023-01-20T20:39:41;27.63;;;15.80;;
6862;SDS011;3470;48.738;9.616;2023-01-20T20:42:07;22.90;;;14.47;;
6862;SDS011;3470;48.738;9.616;2023-01-20T20:44:32;20.87;;;15.47;;
6862;SDS011;3470;48.738;9.616;2023-01-20T20:46:58;22.67;;;15.37;;
6862;SDS011;3470;48.738;9.616;2023-01-20T20:49:24;21.53;;;14.70;;
6862;SDS011;3470;48.738;9.616;2023-01-20T20:51:49;22.00;;;14.53;;
6862;SDS011;3470;48.738;9.616;2023-01-20T20:54:15;26.13;;;14.83;;
6862;SDS011;3470;48.738;9.616;2023-01-20T20:56:41;26.83;;;15.20;;
6862;SDS011;3470;48.738;9.616;2023-01-20T20:59:07;23.10;;;16.10;;
6862;SDS011;3470;48.738;9.616;2023-01-20T21:01:33;24.40;;;15.23;;
6862;SDS011;3470;48.738;9.616;2023-01-20T21:03:59;25.47;;;15.73;;
6862;SDS011;3470;48.738;9.616;2023-01-20T21:06:25;22.47;;;14.83;;
6862;SDS011;3470;48.738;9.616;2023-01-20T21:08:51;23.93;;;15.40;;
6862;SDS011;3470;48.738;9.616;2023-01-20T21:11:17;24.07;;;15.83;;
6862;SDS011;3470;48.738;9.616;2023-01-20T21:13:44;22.23;;;15.87;;
6862;SDS011;3470;48.738;9.616;2023-01-20T21:16:10;21.70;;;15.10;;
6862;SDS011;3470;48.738;9.616;2023-01-20T21:18:40;27.57;;;15.90;;
6862;SDS011;3470;48.738;9.616;2023-01-20T21:21:08;21.33;;;15.30;;
6862;SDS011;3470;48.738;9.616;2023-01-20T21:23:36;21.83;;;15.47;;
6862;SDS011;3470;48.738;9.616;2023-01-20T21:26:03;24.67;;;15.13;;
6862;SDS011;3470;48.738;9.616;2023-01-20T21:28:34;22.50;;;14.77;;
6862;SDS011;3470;48.738;9.616;2023-01-20T21:31:06;24.73;;;15.13;;
6862;SDS011;3470;48.738;9.616;2023-01-20T21:33:34;26.97;;;15.03;;
6862;SDS011;3470;48.738;9.616;2023-01-20T21:36:03;24.67;;;15.97;;
6862;SDS011;3470;48.738;9.616;2023-01-20T21:38:31;24.27;;;15.70;;
6862;SDS011;3470;48.738;9.616;2023-01-20T21:40:56;22.50;;;15.73;;
6862;SDS011;3470;48.738;9.616;2023-01-20T21:43:32;22.27;;;15.67;;
6862;SDS011;3470;48.738;9.616;2023-01-20T21:46:17;23.27;;;15.63;;
6862;SDS011;3470;48.738;9.616;2023-01-20T21:48:43;21.10;;;14.67;;
6862;SDS011;3470;48.738;9.616;2023-01-20T21:51:27;21.40;;;14.33;;
6862;SDS011;3470;48.738;9.616;2023-01-20T21:54:11;23.03;;;14.60;;
6862;SDS011;3470;48.738;9.616;2023-01-20T21:56:37;23.17;;;14.50;;
6862;SDS011;3470;48.738;9.616;2023-01-20T21:59:03;21.83;;;13.90;;
6862;SDS011;3470;48.738;9.616;2023-01-20T22:01:29;23.13;;;15.93;;
6862;SDS011;3470;48.738;9.616;2023-01-20T22:03:54;22.83;;;15.77;;
6862;SDS011;3470;48.738;9.616;2023-01-20T22:06:20;25.47;;;15.47;;
6862;SDS011;3470;48.738;9.616;2023-01-20T22:08:45;23.07;;;14.77;;
6862;SDS011;3470;48.738;9.616;2023-01-20T22:11:11;25.40;;;15.27;;
6862;SDS011;3470;48.738;9.616;2023-01-20T22:13:36;22.60;;;15.87;;
6862;SDS011;3470;48.738;9.616;2023-01-20T22:16:02;21.97;;;15.13;;
6862;SDS011;3470;48.738;9.616;2023-01-20T22:18:29;22.90;;;15.57;;
6862;SDS011;3470;48.738;9.616;2023-01-20T22:21:01;24.00;;;15.70;;
6862;SDS011;3470;48.738;9.616;2023-01-20T22:23:30;23.77;;;16.23;;
6862;SDS011;3470;48.738;9.616;2023-01-20T22:25:57;24.57;;;16.63;;
6862;SDS011;3470;48.738;9.616;2023-01-20T22:28:22;24.57;;;16.30;;
6862;SDS011;3470;48.738;9.616;2023-01-20T22:30:48;25.87;;;16.50;;
6862;SDS011;3470;48.738;9.616;2023-01-20T22:33:14;22.03;;;15.30;;
6862;SDS011;3470;48.738;9.616;2023-01-20T22:35:39;21.30;;;16.27;;
6862;SDS011;3470;48.738;9.616;2023-01-20T22:38:05;23.10;;;15.30;;
6862;SDS011;3470;48.738;9.616;2023-01-20T22:40:31;24.67;;;15.57;;
6862;SDS011;3470;48.738;9.616;2023-01-20T22:42:58;22.27;;;14.83;;
6862;SDS011;3470;48.738;9.616;2023-01-20T22:45:24;21.93;;;15.27;;
6862;SDS011;3470;48.738;9.616;2023-01-20T22:47:50;21.27;;;14.77;;
6862;SDS011;3470;48.738;9.616;2023-01-20T22:50:15;19.57;;;14.13;;
6862;SDS011;3470;48.738;9.616;2023-01-20T22:52:41;25.37;;;15.80;;
6862;SDS011;3470;48.738;9.616;2023-01-20T22:55:07;27.40;;;15.00;;
6862;SDS011;3470;48.738;9.616;2023-01-20T22:57:32;22.17;;;15.37;;
6862;SDS011;3470;48.738;9.616;2023-01-20T22:59:58;22.10;;;14.87;;
6862;SDS011;3470;48.738;9.616;2023-01-20T23:02:24;24.47;;;16.00;;
6862;SDS011;3470;48.738;9.616;2023-01-20T23:04:49;22.87;;;15.17;;
6862;SDS011;3470;48.738;9.616;2023-01-20T23:07:16;22.90;;;15.00;;
6862;SDS011;3470;48.738;9.616;2023-01-20T23:09:42;20.70;;;14.87;;
6862;SDS011;3470;48.738;9.616;2023-01-20T23:12:08;19.27;;;13.93;;
6862;SDS011;3470;48.738;9.616;2023-01-20T23:14:33;18.83;;;14.10;;
6862;SDS011;3470;48.738;9.616;2023-01-20T23:17:17;20.97;;;14.40;;
6862;SDS011;3470;48.738;9.616;2023-01-20T23:19:43;19.53;;;13.57;;
6862;SDS011;3470;48.738;9.616;2023-01-20T23:22:08;21.97;;;14.10;;
6862;SDS011;3470;48.738;9.616;2023-01-20T23:24:34;20.17;;;14.37;;
6862;SDS011;3470;48.738;9.616;2023-01-20T23:26:59;22.57;;;14.70;;
6862;SDS011;3470;48.738;9.616;2023-01-20T23:29:25;23.70;;;14.23;;
6862;SDS011;3470;48.738;9.616;2023-01-20T23:31:51;22.70;;;15.23;;
6862;SDS011;3470;48.738;9.616;2023-01-20T23:34:16;21.23;;;14.47;;
6862;SDS011;3470;48.738;9.616;2023-01-20T23:36:42;21.43;;;14.80;;
6862;SDS011;3470;48.738;9.616;2023-01-20T23:39:08;22.67;;;14.93;;
6862;SDS011;3470;48.738;9.616;2023-01-20T23:41:34;20.43;;;14.07;;
6862;SDS011;3470;48.738;9.616;2023-01-20T23:43:59;20.60;;;15.00;;
6862;SDS011;3470;48.738;9.616;2023-01-20T23:46:26;21.50;;;14.33;;
6862;SDS011;3470;48.738;9.616;2023-01-20T23:48:52;18.63;;;13.97;;
6862;SDS011;3470;48.738;9.616;2023-01-20T23:51:17;20.30;;;14.00;;
6862;SDS011;3470;48.738;9.616;2023-01-20T23:53:43;22.70;;;14.13;;
6862;SDS011;3470;48.738;9.616;2023-01-20T23:56:12;21.73;;;14.20;;
6862;SDS011;3470;48.738;9.616;2023-01-20T23:58:43;21.43;;;13.63;;
